Time;durP1;ratioP1;P1;durP2;ratioP2;P2;SDS_P1;SDS_P2;PMS_P1;PMS_P2;Temp;Humidity;BMP_temperature;BMP_pressure;BME280_temperature;BME280_humidity;BME280_pressure;Samples;Min_cycle;Max_cycle;Signal;HPM_P1;HPM_P2
2023/01/01 00:02:06;;;;;;;22.20;11.60;;;;;;;;;;5026537;28;20052;-75
2023/01/01 00:04:33;;;;;;;16.27;10.70;;;;;;;;;;5022908;28;20040;-76
2023/01/01 00:06:59;;;;;;;21.23;11.20;;;;;;;;;;5015250;28;20415;-75
2023/01/01 00:12:10;;;;;;;18.17;11.45;;;;;;;;;;5015823;28;20063;-76
2023/01/01 00:14:38;;;;;;;18.80;10.38;;;;;;;;;;5011166;28;20172;-76
2023/01/01 00:17:04;;;;;;;20.63;10.80;;;;;;;;;;5019490;28;20045;-77
2023/01/01 00:19:30;;;;;;;16.90;11.15;;;;;;;;;;5025386;28;20030;-77
2023/01/01 00:21:56;;;;;;;22.20;10.85;;;;;;;;;;5015352;28;20032;-76
2023/01/01 00:24:22;;;;;;;14.98;10.45;;;;;;;;;;5020123;28;20014;-76
2023/01/01 00:26:48;;;;;;;16.55;10.75;;;;;;;;;;5020932;28;20033;-76
2023/01/01 00:29:14;;;;;;;17.20;9.80;;;;;;;;;;5020244;28;20029;-76
2023/01/01 00:31:39;;;;;;;20.23;10.38;;;;;;;;;;5018637;28;20049;-77
2023/01/01 00:34:05;;;;;;;18.58;9.73;;;;;;;;;;5014031;28;20041;-77
2023/01/01 00:36:31;;;;;;;19.58;9.98;;;;;;;;;;5023154;28;20029;-76
2023/01/01 00:38:58;;;;;;;19.55;10.52;;;;;;;;;;5018685;28;20103;-76
2023/01/01 00:41:24;;;;;;;15.73;9.85;;;;;;;;;;5025798;28;20033;-76
2023/01/01 00:43:50;;;;;;;15.57;9.75;;;;;;;;;;5020029;28;20649;-76
2023/01/01 00:46:19;;;;;;;14.85;8.98;;;;;;;;;;5023991;28;20029;-76
2023/01/01 00:48:45;;;;;;;15.30;9.05;;;;;;;;;;5028483;28;20025;-79
2023/01/01 00:51:11;;;;;;;17.17;8.88;;;;;;;;;;5025999;28;20106;-84
2023/01/01 00:53:37;;;;;;;14.55;8.48;;;;;;;;;;5020995;28;20175;-86
2023/01/01 00:56:03;;;;;;;18.38;9.43;;;;;;;;;;5025068;28;20033;-85
2023/01/01 00:58:29;;;;;;;19.83;9.02;;;;;;;;;;5027497;28;20099;-85
2023/01/01 01:00:56;;;;;;;16.90;9.57;;;;;;;;;;5023011;28;20029;-86
2023/01/01 01:03:28;;;;;;;12.88;8.50;;;;;;;;;;5020668;28;20392;-85
2023/01/01 01:06:20;;;;;;;16.52;8.52;;;;;;;;;;5025101;28;20017;-85
2023/01/01 01:08:47;;;;;;;15.50;8.48;;;;;;;;;;5016007;28;20022;-86
2023/01/01 01:11:20;;;;;;;13.63;8.55;;;;;;;;;;5024165;28;20017;-86
2023/01/01 01:13:47;;;;;;;12.50;7.30;;;;;;;;;;5018358;28;20740;-86
2023/01/01 01:16:14;;;;;;;12.10;7.60;;;;;;;;;;5006084;28;20351;-85
2023/01/01 01:18:41;;;;;;;13.27;7.90;;;;;;;;;;5023463;28;20387;-86
2023/01/01 01:21:07;;;;;;;13.30;8.25;;;;;;;;;;5023107;28;20132;-87
2023/01/01 01:23:34;;;;;;;12.15;7.63;;;;;;;;;;5023770;28;20049;-86
2023/01/01 01:26:11;;;;;;;10.95;7.82;;;;;;;;;;5026093;28;20068;-87
2023/01/01 01:28:37;;;;;;;14.23;7.82;;;;;;;;;;5019591;28;20104;-87
2023/01/01 01:31:03;;;;;;;12.63;7.50;;;;;;;;;;5024840;28;20098;-86
2023/01/01 01:33:29;;;;;;;15.38;7.68;;;;;;;;;;5021220;28;20045;-86
2023/01/01 01:35:55;;;;;;;12.90;7.93;;;;;;;;;;5023139;28;20025;-86
2023/01/01 01:38:21;;;;;;;13.13;7.10;;;;;;;;;;5030085;28;20075;-86
2023/01/01 01:40:47;;;;;;;13.00;7.45;;;;;;;;;;5027102;28;20496;-87
2023/01/01 01:43:21;;;;;;;12.48;7.40;;;;;;;;;;5026499;28;20033;-86
2023/01/01 01:45:48;;;;;;;13.35;7.40;;;;;;;;;;5022301;28;20040;-86
2023/01/01 01:48:14;;;;;;;13.15;7.57;;;;;;;;;;5024807;28;20060;-87
2023/01/01 01:50:41;;;;;;;12.68;7.25;;;;;;;;;;5018825;28;20018;-86
2023/01/01 01:53:12;;;;;;;11.93;7.40;;;;;;;;;;5023459;28;20018;-87
2023/01/01 01:55:44;;;;;;;12.45;6.90;;;;;;;;;;5026343;28;20025;-85
2023/01/01 01:58:12;;;;;;;14.20;7.65;;;;;;;;;;5024760;28;20030;-86
2023/01/01 02:00:38;;;;;;;13.82;7.50;;;;;;;;;;5013150;28;20029;-86
2023/01/01 02:03:09;;;;;;;13.02;7.28;;;;;;;;;;5029829;28;20466;-86
2023/01/01 02:05:36;;;;;;;12.48;7.32;;;;;;;;;;5027610;28;20083;-87
2023/01/01 02:08:05;;;;;;;11.23;6.90;;;;;;;;;;5025199;28;20037;-87
2023/01/01 02:10:31;;;;;;;12.15;6.72;;;;;;;;;;5021895;28;20179;-86
2023/01/01 02:12:57;;;;;;;16.02;6.53;;;;;;;;;;5019778;28;20064;-87
2023/01/01 02:15:26;;;;;;;11.50;6.68;;;;;;;;;;5019218;28;20068;-86
2023/01/01 02:17:59;;;;;;;11.77;6.93;;;;;;;;;;5020783;28;20523;-86
2023/01/01 02:20:31;;;;;;;11.25;6.85;;;;;;;;;;5027259;28;20057;-87
2023/01/01 02:23:30;;;;;;;11.07;6.80;;;;;;;;;;5023750;28;20067;-86
2023/01/01 02:26:06;;;;;;;10.80;6.15;;;;;;;;;;5028952;28;20048;-85
2023/01/01 02:28:50;;;;;;;13.90;6.45;;;;;;;;;;5027074;28;20060;-86
2023/01/01 02:31:20;;;;;;;11.85;6.45;;;;;;;;;;5031957;28;20111;-87
2023/01/01 02:33:54;;;;;;;11.23;5.90;;;;;;;;;;5024845;28;20041;-86
2023/01/01 02:36:22;;;;;;;12.45;6.90;;;;;;;;;;5019617;28;20101;-86
2023/01/01 02:38:54;;;;;;;11.27;6.32;;;;;;;;;;5027402;28;20033;-85
2023/01/01 02:41:24;;;;;;;12.10;6.35;;;;;;;;;;5019694;28;20095;-86
2023/01/01 02:43:50;;;;;;;11.57;7.28;;;;;;;;;;5045908;28;20056;-86
2023/01/01 02:46:16;;;;;;;10.93;6.93;;;;;;;;;;5024883;28;20485;-86
2023/01/01 02:48:48;;;;;;;11.45;6.80;;;;;;;;;;5031292;28;20035;-85
2023/01/01 02:51:19;;;;;;;11.55;6.53;;;;;;;;;;5026966;28;20473;-85
2023/01/01 02:53:48;;;;;;;11.32;6.07;;;;;;;;;;5029062;28;20288;-86
2023/01/01 02:56:19;;;;;;;9.68;6.18;;;;;;;;;;5023250;28;20036;-85
2023/01/01 03:01:43;;;;;;;12.07;5.55;;;;;;;;;;5029081;28;20067;-86
2023/01/01 03:04:22;;;;;;;10.45;5.78;;;;;;;;;;5028201;28;20030;-85
2023/01/01 03:10:04;;;;;;;10.95;5.72;;;;;;;;;;5028724;28;20087;-86
2023/01/01 03:12:43;;;;;;;9.73;5.53;;;;;;;;;;5029029;28;20026;-85
2023/01/01 03:15:14;;;;;;;8.85;5.63;;;;;;;;;;5030836;28;20036;-85
2023/01/01 03:17:40;;;;;;;;;;;;;;;;;;5027806;28;20100;-85
2023/01/01 03:20:10;;;;;;;8.63;5.07;;;;;;;;;;5025795;28;19988;-85
2023/01/01 03:22:40;;;;;;;9.05;5.35;;;;;;;;;;5026576;28;20024;-86
2023/01/01 03:25:11;;;;;;;9.27;5.32;;;;;;;;;;5027110;28;20242;-85
2023/01/01 03:27:41;;;;;;;10.30;5.32;;;;;;;;;;5019728;28;20621;-86
2023/01/01 03:30:08;;;;;;;8.95;6.00;;;;;;;;;;5024508;28;20025;-86
2023/01/01 03:35:24;;;;;;;11.73;5.55;;;;;;;;;;5029170;28;20141;-87
2023/01/01 03:37:51;;;;;;;11.48;5.55;;;;;;;;;;5025621;28;20017;-88
2023/01/01 03:40:19;;;;;;;10.73;5.70;;;;;;;;;;5018223;28;20030;-86
2023/01/01 03:42:49;;;;;;;8.65;4.78;;;;;;;;;;5029379;28;20033;-87
2023/01/01 03:45:24;;;;;;;8.00;4.87;;;;;;;;;;5022674;28;20105;-87
2023/01/01 03:47:50;;;;;;;7.63;4.70;;;;;;;;;;5023959;28;20489;-88
2023/01/01 03:50:17;;;;;;;9.07;4.97;;;;;;;;;;5022577;28;20029;-85
2023/01/01 03:52:47;;;;;;;9.82;5.03;;;;;;;;;;5029788;28;20598;-86
2023/01/01 03:55:19;;;;;;;9.15;4.60;;;;;;;;;;5024714;28;20021;-85
2023/01/01 03:57:45;;;;;;;7.97;4.90;;;;;;;;;;5026164;28;20036;-85
2023/01/01 04:00:21;;;;;;;8.27;4.78;;;;;;;;;;5021293;28;20467;-85
2023/01/01 04:03:07;;;;;;;6.63;4.35;;;;;;;;;;5018410;28;20022;-85
2023/01/01 04:05:36;;;;;;;11.32;4.75;;;;;;;;;;5022440;28;20040;-84
2023/01/01 04:08:02;;;;;;;8.35;4.35;;;;;;;;;;5031655;28;20032;-84
2023/01/01 04:10:33;;;;;;;8.93;5.47;;;;;;;;;;5026791;28;20030;-85
2023/01/01 04:13:01;;;;;;;7.90;4.57;;;;;;;;;;5029024;28;20071;-85
2023/01/01 04:15:28;;;;;;;6.85;4.55;;;;;;;;;;5022837;28;20033;-84
2023/01/01 04:17:54;;;;;;;8.05;4.97;;;;;;;;;;5028520;28;20026;-85
2023/01/01 04:20:20;;;;;;;7.05;4.32;;;;;;;;;;5028591;28;20412;-84
2023/01/01 04:22:46;;;;;;;8.32;4.45;;;;;;;;;;5023633;28;20507;-85
2023/01/01 04:25:13;;;;;;;8.95;5.05;;;;;;;;;;5026109;28;20063;-84
2023/01/01 04:27:40;;;;;;;7.47;4.40;;;;;;;;;;5031289;28;20033;-84
2023/01/01 04:30:07;;;;;;;8.05;4.43;;;;;;;;;;5022912;28;20022;-84
2023/01/01 04:32:33;;;;;;;8.82;4.38;;;;;;;;;;5019090;28;20035;-84
2023/01/01 04:34:59;;;;;;;6.88;4.60;;;;;;;;;;5026114;28;20037;-84
2023/01/01 04:37:25;;;;;;;6.03;4.18;;;;;;;;;;5026201;28;20546;-84
2023/01/01 04:39:51;;;;;;;8.35;4.57;;;;;;;;;;5025496;28;20464;-84
2023/01/01 04:42:17;;;;;;;8.63;4.88;;;;;;;;;;5023343;28;20086;-83
2023/01/01 04:44:43;;;;;;;9.93;4.07;;;;;;;;;;5022830;28;20449;-84
2023/01/01 04:47:10;;;;;;;5.95;4.05;;;;;;;;;;5031017;28;20025;-83
2023/01/01 04:52:28;;;;;;;9.38;4.60;;;;;;;;;;5021011;28;20033;-84
2023/01/01 04:54:54;;;;;;;7.97;4.00;;;;;;;;;;5020044;28;20443;-84
2023/01/01 04:57:20;;;;;;;8.43;4.05;;;;;;;;;;5025826;28;20025;-84
2023/01/01 04:59:46;;;;;;;9.40;4.38;;;;;;;;;;5023791;28;20022;-84
2023/01/01 05:02:12;;;;;;;7.43;4.20;;;;;;;;;;5026449;28;20029;-85
2023/01/01 05:04:38;;;;;;;8.73;4.25;;;;;;;;;;5023382;28;20028;-83
2023/01/01 05:07:04;;;;;;;9.80;4.22;;;;;;;;;;5017007;28;20033;-85
2023/01/01 05:09:30;;;;;;;8.63;4.13;;;;;;;;;;5026803;28;20026;-85
2023/01/01 05:12:08;;;;;;;5.78;3.45;;;;;;;;;;5022624;28;20036;-84
2023/01/01 05:14:34;;;;;;;7.63;4.30;;;;;;;;;;5020805;28;20030;-83
2023/01/01 05:17:00;;;;;;;10.55;4.18;;;;;;;;;;5025951;28;20025;-84
2023/01/01 05:19:26;;;;;;;9.18;4.20;;;;;;;;;;5024021;28;20432;-84
2023/01/01 05:21:53;;;;;;;7.43;4.25;;;;;;;;;;5021748;28;20052;-84
2023/01/01 05:24:19;;;;;;;8.18;4.32;;;;;;;;;;5027141;28;20025;-85
2023/01/01 05:26:45;;;;;;;6.32;4.07;;;;;;;;;;5019248;28;20029;-84
2023/01/01 05:29:11;;;;;;;7.63;4.20;;;;;;;;;;5024672;28;20021;-85
2023/01/01 05:31:37;;;;;;;7.78;4.15;;;;;;;;;;5017364;28;20033;-84
2023/01/01 05:34:03;;;;;;;7.35;3.90;;;;;;;;;;5018013;28;20061;-84
2023/01/01 05:36:31;;;;;;;6.25;3.72;;;;;;;;;;5024321;28;20582;-84
2023/01/01 05:38:57;;;;;;;5.95;3.70;;;;;;;;;;5023250;28;20037;-84
2023/01/01 05:41:43;;;;;;;6.05;3.60;;;;;;;;;;5021455;28;20033;-84
2023/01/01 05:44:10;;;;;;;6.47;3.60;;;;;;;;;;5018609;28;20033;-84
2023/01/01 05:46:36;;;;;;;6.60;4.05;;;;;;;;;;5026752;28;20029;-83
2023/01/01 05:49:03;;;;;;;6.10;3.88;;;;;;;;;;5050321;28;20065;-84
2023/01/01 05:51:29;;;;;;;7.10;4.20;;;;;;;;;;5018668;28;20028;-85
2023/01/01 05:53:55;;;;;;;6.97;3.78;;;;;;;;;;5020877;28;20026;-86
2023/01/01 05:56:22;;;;;;;6.00;3.50;;;;;;;;;;5017881;28;20464;-84
2023/01/01 05:58:48;;;;;;;6.60;3.80;;;;;;;;;;5014293;28;20506;-87
2023/01/01 06:01:20;;;;;;;8.35;3.58;;;;;;;;;;5021889;28;20651;-87
2023/01/01 06:03:47;;;;;;;6.05;3.53;;;;;;;;;;5022691;28;20033;-86
2023/01/01 06:06:15;;;;;;;5.30;3.03;;;;;;;;;;5022194;28;20373;-87
2023/01/01 06:08:41;;;;;;;6.53;3.38;;;;;;;;;;5021241;28;20017;-88
2023/01/01 06:11:11;;;;;;;5.18;3.03;;;;;;;;;;5019280;28;20031;-83
2023/01/01 06:13:37;;;;;;;5.90;3.40;;;;;;;;;;5024107;28;20083;-88
2023/01/01 06:16:04;;;;;;;7.32;3.53;;;;;;;;;;5025492;28;20057;-84
2023/01/01 06:18:31;;;;;;;5.55;3.65;;;;;;;;;;5022494;28;20025;-86
2023/01/01 06:21:07;;;;;;;4.90;3.50;;;;;;;;;;5019483;28;20026;-86
2023/01/01 06:23:33;;;;;;;5.45;2.92;;;;;;;;;;5023854;28;20064;-86
2023/01/01 06:26:05;;;;;;;6.50;3.22;;;;;;;;;;5012966;28;20033;-85
2023/01/01 06:28:37;;;;;;;5.47;3.58;;;;;;;;;;5021534;28;20025;-86
2023/01/01 06:31:04;;;;;;;5.25;3.00;;;;;;;;;;5025027;28;20533;-84
2023/01/01 06:33:30;;;;;;;7.93;3.00;;;;;;;;;;5021528;28;20053;-85
2023/01/01 06:35:59;;;;;;;6.57;3.22;;;;;;;;;;5021674;28;20476;-86
2023/01/01 06:38:25;;;;;;;7.10;3.53;;;;;;;;;;5021660;28;20445;-84
2023/01/01 06:41:01;;;;;;;4.60;2.95;;;;;;;;;;5023284;28;20277;-87
2023/01/01 06:43:55;;;;;;;4.57;2.67;;;;;;;;;;5026637;28;20109;-86
2023/01/01 06:46:28;;;;;;;5.35;2.90;;;;;;;;;;5011577;28;20112;-86
2023/01/01 06:48:56;;;;;;;4.63;2.60;;;;;;;;;;5021851;28;20032;-85
2023/01/01 06:51:23;;;;;;;6.07;3.65;;;;;;;;;;5021851;28;20022;-86
2023/01/01 06:53:50;;;;;;;5.72;3.28;;;;;;;;;;5026666;28;20032;-87
2023/01/01 06:56:16;;;;;;;4.53;2.72;;;;;;;;;;5013109;28;20053;-86
2023/01/01 06:58:42;;;;;;;5.85;3.70;;;;;;;;;;5023582;28;20139;-85
2023/01/01 07:01:10;;;;;;;4.63;2.58;;;;;;;;;;5027938;28;20017;-87
2023/01/01 07:03:36;;;;;;;4.28;2.90;;;;;;;;;;5025371;28;20063;-86
2023/01/01 07:06:02;;;;;;;5.82;2.72;;;;;;;;;;5035791;28;20056;-85
2023/01/01 07:08:28;;;;;;;6.43;3.30;;;;;;;;;;5023662;28;20068;-85
2023/01/01 07:10:56;;;;;;;4.72;3.13;;;;;;;;;;5030231;28;20048;-85
2023/01/01 07:13:26;;;;;;;5.10;2.78;;;;;;;;;;5025323;28;20029;-86
2023/01/01 07:15:52;;;;;;;4.50;2.70;;;;;;;;;;5025219;28;20112;-86
2023/01/01 07:18:24;;;;;;;4.93;2.80;;;;;;;;;;5025836;28;20045;-86
2023/01/01 07:20:55;;;;;;;3.83;2.60;;;;;;;;;;5028747;28;20033;-86
2023/01/01 07:23:21;;;;;;;4.00;2.60;;;;;;;;;;5027642;28;20057;-86
2023/01/01 07:25:48;;;;;;;6.10;2.53;;;;;;;;;;5024055;28;20029;-86
2023/01/01 07:28:14;;;;;;;4.03;2.40;;;;;;;;;;5019013;28;20148;-86
2023/01/01 07:30:40;;;;;;;6.60;2.85;;;;;;;;;;5025940;28;20491;-86
2023/01/01 07:33:16;;;;;;;3.42;2.63;;;;;;;;;;5028227;28;20029;-86
2023/01/01 07:35:45;;;;;;;6.05;2.58;;;;;;;;;;5029804;28;20048;-86
2023/01/01 07:38:12;;;;;;;4.75;2.65;;;;;;;;;;5033530;28;20034;-86
2023/01/01 07:40:38;;;;;;;4.95;2.75;;;;;;;;;;5025365;28;20030;-86
2023/01/01 07:43:04;;;;;;;4.25;2.50;;;;;;;;;;5039615;28;20112;-86
2023/01/01 07:45:31;;;;;;;3.60;2.45;;;;;;;;;;5029551;28;20040;-85
2023/01/01 07:47:58;;;;;;;8.82;2.28;;;;;;;;;;5025027;28;20094;-86
2023/01/01 07:50:25;;;;;;;4.00;2.55;;;;;;;;;;5027180;28;20114;-87
2023/01/01 07:52:51;;;;;;;4.47;2.60;;;;;;;;;;5023306;28;20029;-87
2023/01/01 07:55:18;;;;;;;4.97;2.35;;;;;;;;;;5032984;28;20080;-85
2023/01/01 07:57:47;;;;;;;4.10;2.60;;;;;;;;;;5020726;28;20033;-86
2023/01/01 08:00:15;;;;;;;3.70;2.25;;;;;;;;;;5024496;28;20040;-86
2023/01/01 08:02:42;;;;;;;3.60;2.30;;;;;;;;;;5020305;28;20098;-85
2023/01/01 08:05:09;;;;;;;3.13;1.85;;;;;;;;;;5027200;28;20031;-86
2023/01/01 08:07:35;;;;;;;3.45;2.63;;;;;;;;;;5024547;28;20745;-86
2023/01/01 08:10:04;;;;;;;4.68;2.42;;;;;;;;;;5026862;28;20023;-85
2023/01/01 08:12:30;;;;;;;4.07;2.13;;;;;;;;;;5023213;28;20026;-85
2023/01/01 08:14:56;;;;;;;5.85;2.45;;;;;;;;;;5025468;28;20020;-87
2023/01/01 08:17:22;;;;;;;4.35;2.28;;;;;;;;;;5027918;28;20473;-85
2023/01/01 08:19:50;;;;;;;5.80;2.65;;;;;;;;;;5027644;28;20029;-85
2023/01/01 08:22:16;;;;;;;3.83;2.30;;;;;;;;;;5024028;28;20391;-85
2023/01/01 08:24:42;;;;;;;3.75;2.40;;;;;;;;;;5025793;28;20025;-85
2023/01/01 08:27:11;;;;;;;3.30;2.13;;;;;;;;;;5022291;28;20036;-85
2023/01/01 08:29:37;;;;;;;6.68;2.20;;;;;;;;;;5022271;28;20021;-84
2023/01/01 08:32:04;;;;;;;3.63;2.13;;;;;;;;;;5026648;28;20014;-84
2023/01/01 08:34:29;;;;;;;4.50;2.25;;;;;;;;;;5025135;28;20037;-85
2023/01/01 08:36:55;;;;;;;4.60;2.40;;;;;;;;;;5028622;28;20549;-80
2023/01/01 08:39:21;;;;;;;3.38;2.50;;;;;;;;;;5024435;28;20072;-80
2023/01/01 08:41:47;;;;;;;5.05;2.72;;;;;;;;;;5031012;28;20420;-79
2023/01/01 08:44:13;;;;;;;7.07;2.90;;;;;;;;;;5022301;28;20031;-76
2023/01/01 08:46:39;;;;;;;5.07;2.15;;;;;;;;;;5018679;28;20480;-76
2023/01/01 08:49:05;;;;;;;6.10;2.28;;;;;;;;;;5022246;28;20060;-80
2023/01/01 08:51:31;;;;;;;3.88;2.40;;;;;;;;;;5030680;28;20114;-80
2023/01/01 08:53:57;;;;;;;3.65;2.10;;;;;;;;;;5026479;28;20100;-79
2023/01/01 08:56:23;;;;;;;5.10;2.70;;;;;;;;;;5023895;28;20488;-79
2023/01/01 08:58:49;;;;;;;5.20;2.35;;;;;;;;;;5021497;28;20056;-79
2023/01/01 09:01:15;;;;;;;3.47;2.30;;;;;;;;;;5028038;28;20592;-78
2023/01/01 09:03:41;;;;;;;5.45;2.35;;;;;;;;;;5022476;28;20101;-78
2023/01/01 09:06:07;;;;;;;2.95;2.30;;;;;;;;;;5024509;28;20095;-77
2023/01/01 09:08:33;;;;;;;3.05;1.90;;;;;;;;;;5018132;28;20461;-78
2023/01/01 09:11:00;;;;;;;4.22;2.53;;;;;;;;;;5012759;28;20112;-79
2023/01/01 09:13:30;;;;;;;4.43;2.28;;;;;;;;;;5025583;28;20040;-74
2023/01/01 09:15:59;;;;;;;4.57;2.60;;;;;;;;;;5015322;28;20555;-79
2023/01/01 09:18:25;;;;;;;7.03;2.53;;;;;;;;;;5024224;28;20172;-78
2023/01/01 09:20:51;;;;;;;3.95;2.05;;;;;;;;;;5029072;28;20056;-77
2023/01/01 09:23:17;;;;;;;4.95;2.60;;;;;;;;;;5018651;28;20140;-77
2023/01/01 09:25:43;;;;;;;4.05;2.28;;;;;;;;;;5018521;28;20025;-78
2023/01/01 09:28:13;;;;;;;8.85;2.53;;;;;;;;;;5023779;28;20100;-79
2023/01/01 09:30:39;;;;;;;5.32;2.47;;;;;;;;;;5017737;28;20540;-77
2023/01/01 09:33:05;;;;;;;5.00;2.50;;;;;;;;;;5019755;28;20116;-77
2023/01/01 09:35:31;;;;;;;4.20;2.20;;;;;;;;;;5019312;28;20045;-77
2023/01/01 09:37:57;;;;;;;3.50;2.20;;;;;;;;;;5015080;28;20488;-78
2023/01/01 09:40:26;;;;;;;4.80;2.47;;;;;;;;;;5016038;28;20044;-77
2023/01/01 09:43:12;;;;;;;4.15;2.42;;;;;;;;;;5018010;28;20037;-77
2023/01/01 09:45:57;;;;;;;9.48;2.60;;;;;;;;;;5018692;28;20560;-77
2023/01/01 09:48:25;;;;;;;7.20;2.30;;;;;;;;;;5023713;28;20116;-77
2023/01/01 09:50:51;;;;;;;6.85;2.67;;;;;;;;;;5016700;28;20633;-77
2023/01/01 09:53:30;;;;;;;3.90;2.30;;;;;;;;;;5018545;28;20018;-76
2023/01/01 09:55:57;;;;;;;4.80;2.40;;;;;;;;;;5020088;28;20036;-77
2023/01/01 09:58:25;;;;;;;3.25;2.35;;;;;;;;;;5024373;28;20029;-77
2023/01/01 10:00:56;;;;;;;3.50;2.17;;;;;;;;;;5019554;28;20396;-76
2023/01/01 10:03:31;;;;;;;3.97;1.98;;;;;;;;;;5019918;28;20029;-78
2023/01/01 10:06:05;;;;;;;2.88;2.10;;;;;;;;;;5015899;28;20403;-76
2023/01/01 10:08:41;;;;;;;4.13;2.17;;;;;;;;;;5018591;28;20614;-76
2023/01/01 10:11:14;;;;;;;4.40;2.38;;;;;;;;;;5016778;28;20029;-76
2023/01/01 10:13:44;;;;;;;3.20;2.05;;;;;;;;;;5021755;28;20541;-76
2023/01/01 10:16:17;;;;;;;4.05;2.50;;;;;;;;;;5022085;28;20037;-76
2023/01/01 10:18:44;;;;;;;3.22;1.98;;;;;;;;;;5019981;28;20052;-76
2023/01/01 10:21:16;;;;;;;3.17;1.98;;;;;;;;;;5019848;28;20029;-76
2023/01/01 10:23:52;;;;;;;4.43;2.22;;;;;;;;;;5019203;28;20026;-76
2023/01/01 10:26:20;;;;;;;3.22;1.83;;;;;;;;;;5019767;28;20026;-75
2023/01/01 10:29:07;;;;;;;3.30;1.80;;;;;;;;;;5019751;28;20698;-77
2023/01/01 10:31:38;;;;;;;7.35;1.90;;;;;;;;;;5019767;28;20105;-77
2023/01/01 10:34:07;;;;;;;;;;;;;;;;;;5018643;28;20042;-77
2023/01/01 10:36:33;;;;;;;3.17;1.88;;;;;;;;;;5010339;28;20000;-77
2023/01/01 10:38:59;;;;;;;2.97;1.65;;;;;;;;;;5023664;28;20121;-76
2023/01/01 10:41:25;;;;;;;4.07;2.33;;;;;;;;;;5026943;28;20064;-76
2023/01/01 10:43:51;;;;;;;4.13;1.88;;;;;;;;;;5027156;28;20030;-76
2023/01/01 10:46:19;;;;;;;4.00;1.95;;;;;;;;;;5024173;28;20060;-77
2023/01/01 10:49:03;;;;;;;3.55;2.03;;;;;;;;;;5021079;28;20777;-76
2023/01/01 10:51:29;;;;;;;4.07;2.15;;;;;;;;;;5027453;28;20495;-77
2023/01/01 10:53:55;;;;;;;2.70;1.80;;;;;;;;;;5027588;28;20025;-77
2023/01/01 10:56:24;;;;;;;3.55;1.83;;;;;;;;;;5017590;28;20044;-77
2023/01/01 10:58:53;;;;;;;2.53;1.98;;;;;;;;;;5016091;28;20037;-87
2023/01/01 11:01:22;;;;;;;1.77;1.52;;;;;;;;;;5020149;28;20017;-78
2023/01/01 11:04:19;;;;;;;5.60;2.10;;;;;;;;;;5019823;28;20435;-76
2023/01/01 11:06:46;;;;;;;3.15;1.77;;;;;;;;;;5014639;28;20567;-76
2023/01/01 11:09:26;;;;;;;4.43;1.73;;;;;;;;;;5015745;28;20029;-77
2023/01/01 11:12:01;;;;;;;2.03;1.30;;;;;;;;;;5018367;28;20025;-77
2023/01/01 11:14:30;;;;;;;4.55;1.88;;;;;;;;;;5023774;28;20025;-76
2023/01/01 11:16:56;;;;;;;3.80;1.67;;;;;;;;;;5016236;28;20744;-76
2023/01/01 11:19:40;;;;;;;3.92;1.90;;;;;;;;;;5017548;28;20067;-73
2023/01/01 11:22:06;;;;;;;1.58;1.35;;;;;;;;;;5017103;28;20801;-75
2023/01/01 11:24:33;;;;;;;2.95;1.45;;;;;;;;;;5017902;28;20492;-75
2023/01/01 11:27:16;;;;;;;2.88;1.63;;;;;;;;;;5018072;28;20493;-76
2023/01/01 11:29:42;;;;;;;2.00;1.42;;;;;;;;;;5015829;28;20030;-75
2023/01/01 11:32:08;;;;;;;1.73;1.50;;;;;;;;;;5018615;28;20021;-73
2023/01/01 11:34:38;;;;;;;3.60;1.15;;;;;;;;;;5016183;28;20100;-76
2023/01/01 11:37:10;;;;;;;4.05;1.30;;;;;;;;;;5015385;28;20025;-74
2023/01/01 11:39:37;;;;;;;2.70;1.83;;;;;;;;;;5018109;28;20033;-75
2023/01/01 11:42:05;;;;;;;2.00;1.40;;;;;;;;;;5020573;28;20072;-76
2023/01/01 11:44:43;;;;;;;2.20;1.33;;;;;;;;;;5014989;28;20034;-75
2023/01/01 11:47:24;;;;;;;1.75;1.42;;;;;;;;;;5017365;28;20029;-76
2023/01/01 11:49:57;;;;;;;4.05;1.83;;;;;;;;;;5018233;28;20112;-86
2023/01/01 11:52:27;;;;;;;1.73;1.45;;;;;;;;;;5023355;28;20526;-76
2023/01/01 11:55:00;;;;;;;3.08;1.65;;;;;;;;;;5022906;28;20022;-88
2023/01/01 11:57:26;;;;;;;2.28;1.63;;;;;;;;;;5024166;28;20037;-88
2023/01/01 11:59:55;;;;;;;2.35;1.50;;;;;;;;;;5021722;28;20021;-80
2023/01/01 12:02:33;;;;;;;5.50;1.92;;;;;;;;;;5018089;28;20117;-76
2023/01/01 12:05:07;;;;;;;2.40;1.42;;;;;;;;;;5014335;28;20029;-79
2023/01/01 12:07:35;;;;;;;3.05;1.50;;;;;;;;;;5022756;28;20037;-77
2023/01/01 12:10:06;;;;;;;1.98;1.48;;;;;;;;;;5021765;28;20535;-77
2023/01/01 12:12:34;;;;;;;2.90;1.40;;;;;;;;;;5015140;28;20025;-77
2023/01/01 12:15:04;;;;;;;2.65;1.52;;;;;;;;;;5017433;28;20039;-77
2023/01/01 12:17:43;;;;;;;2.00;1.30;;;;;;;;;;5018170;28;20488;-77
2023/01/01 12:20:16;;;;;;;2.42;1.10;;;;;;;;;;5017295;28;20034;-77
2023/01/01 12:22:42;;;;;;;2.33;1.48;;;;;;;;;;5023559;28;20060;-77
2023/01/01 12:25:12;;;;;;;6.28;1.70;;;;;;;;;;5016912;28;20053;-77
2023/01/01 12:27:47;;;;;;;2.38;1.40;;;;;;;;;;5013948;28;20057;-77
2023/01/01 12:30:15;;;;;;;2.10;1.42;;;;;;;;;;5015465;28;20025;-77
2023/01/01 12:33:00;;;;;;;3.00;1.45;;;;;;;;;;5018612;28;20260;-77
2023/01/01 12:35:35;;;;;;;4.47;1.60;;;;;;;;;;5020538;28;20065;-78
2023/01/01 12:38:09;;;;;;;2.38;1.30;;;;;;;;;;5018764;28;20033;-77
2023/01/01 12:40:41;;;;;;;1.77;1.33;;;;;;;;;;5021485;28;20110;-77
2023/01/01 12:43:11;;;;;;;3.05;1.35;;;;;;;;;;5019743;28;20074;-77
2023/01/01 12:45:53;;;;;;;1.90;1.30;;;;;;;;;;5014570;28;20029;-77
2023/01/01 12:48:29;;;;;;;2.17;1.60;;;;;;;;;;5016055;28;20566;-77
2023/01/01 12:51:14;;;;;;;3.33;1.42;;;;;;;;;;5018093;28;20536;-77
2023/01/01 12:53:46;;;;;;;2.20;1.48;;;;;;;;;;5022671;28;20057;-78
2023/01/01 12:56:15;;;;;;;2.80;1.20;;;;;;;;;;5014149;28;20725;-77
2023/01/01 12:59:02;;;;;;;1.77;1.33;;;;;;;;;;5018282;28;20029;-77
2023/01/01 13:01:31;;;;;;;2.20;1.48;;;;;;;;;;5015295;28;20013;-78
2023/01/01 13:04:15;;;;;;;4.25;1.65;;;;;;;;;;5019704;28;20033;-78
2023/01/01 13:06:50;;;;;;;3.60;1.45;;;;;;;;;;5019282;28;20108;-78
2023/01/01 13:09:23;;;;;;;3.72;1.33;;;;;;;;;;5016579;28;20037;-78
2023/01/01 13:11:52;;;;;;;3.92;1.50;;;;;;;;;;5013563;28;20036;-77
2023/01/01 13:14:18;;;;;;;3.13;1.38;;;;;;;;;;5017832;28;20112;-77
2023/01/01 13:17:04;;;;;;;2.85;1.30;;;;;;;;;;5025469;28;20025;-77
2023/01/01 13:19:39;;;;;;;3.88;1.33;;;;;;;;;;5024289;28;20546;-77
2023/01/01 13:22:24;;;;;;;1.63;1.35;;;;;;;;;;5020795;28;20037;-77
2023/01/01 13:25:14;;;;;;;2.35;1.33;;;;;;;;;;5026213;28;20112;-79
2023/01/01 13:27:56;;;;;;;1.23;1.13;;;;;;;;;;5020874;28;20033;-78
2023/01/01 13:30:40;;;;;;;1.73;1.30;;;;;;;;;;5024463;28;20349;-78
2023/01/01 13:33:12;;;;;;;2.28;1.25;;;;;;;;;;5024074;28;20141;-83
2023/01/01 13:35:41;;;;;;;2.75;1.40;;;;;;;;;;5025088;28;20041;-82
2023/01/01 13:38:52;;;;;;;3.78;1.30;;;;;;;;;;5023216;28;20076;-81
2023/01/01 13:41:24;;;;;;;1.40;1.13;;;;;;;;;;5014244;28;20051;-82
2023/01/01 13:43:51;;;;;;;2.13;1.20;;;;;;;;;;5019535;28;20082;-81
2023/01/01 13:46:18;;;;;;;1.98;1.27;;;;;;;;;;5017197;28;20029;-81
2023/01/01 13:48:44;;;;;;;2.40;1.40;;;;;;;;;;5012513;28;20087;-83
2023/01/01 13:51:22;;;;;;;5.03;1.20;;;;;;;;;;5011763;28;20049;-83
2023/01/01 13:53:48;;;;;;;2.17;1.10;;;;;;;;;;5017145;28;20063;-82
2023/01/01 13:56:23;;;;;;;3.17;1.20;;;;;;;;;;5011698;28;20030;-83
2023/01/01 13:58:52;;;;;;;1.85;1.40;;;;;;;;;;5013386;28;20013;-78
2023/01/01 14:01:25;;;;;;;1.70;1.25;;;;;;;;;;5021872;28;20689;-77
2023/01/01 14:03:53;;;;;;;1.85;1.30;;;;;;;;;;5015094;28;20080;-77
2023/01/01 14:06:29;;;;;;;2.20;1.30;;;;;;;;;;5014245;28;20284;-76
2023/01/01 14:09:21;;;;;;;1.83;1.20;;;;;;;;;;5017299;28;20024;-78
2023/01/01 14:11:56;;;;;;;9.35;1.52;;;;;;;;;;5015535;28;20037;-80
2023/01/01 14:14:24;;;;;;;2.67;1.42;;;;;;;;;;5016213;28;20080;-78
2023/01/01 14:16:52;;;;;;;4.43;1.52;;;;;;;;;;5015225;28;20063;-79
2023/01/01 14:19:18;;;;;;;3.05;1.50;;;;;;;;;;5019757;28;20037;-76
2023/01/01 14:21:44;;;;;;;2.90;1.40;;;;;;;;;;5016896;28;20119;-77
2023/01/01 14:24:14;;;;;;;1.85;1.52;;;;;;;;;;5018341;28;20036;-77
2023/01/01 14:26:40;;;;;;;4.03;1.48;;;;;;;;;;5016906;28;20026;-77
2023/01/01 14:29:07;;;;;;;2.58;1.52;;;;;;;;;;5015474;28;20028;-77
2023/01/01 14:31:51;;;;;;;4.00;1.70;;;;;;;;;;5011901;28;20450;-77
2023/01/01 14:34:21;;;;;;;1.65;1.08;;;;;;;;;;5015418;28;20042;-79
2023/01/01 14:36:51;;;;;;;1.90;1.20;;;;;;;;;;5016466;28;20420;-76
2023/01/01 14:39:22;;;;;;;6.57;1.40;;;;;;;;;;5018119;28;20071;-78
2023/01/01 14:41:48;;;;;;;1.30;1.20;;;;;;;;;;5014736;28;20056;-79
2023/01/01 14:44:19;;;;;;;6.20;1.60;;;;;;;;;;5019713;28;20027;-77
2023/01/01 14:46:46;;;;;;;2.72;1.98;;;;;;;;;;5014714;28;20029;-76
2023/01/01 14:49:16;;;;;;;2.88;1.42;;;;;;;;;;5016415;28;20029;-79
2023/01/01 14:51:45;;;;;;;3.28;1.67;;;;;;;;;;5014670;28;20025;-78
2023/01/01 14:54:15;;;;;;;1.95;1.30;;;;;;;;;;5014306;28;20086;-76
2023/01/01 14:56:41;;;;;;;4.60;1.63;;;;;;;;;;5015528;28;20029;-77
2023/01/01 14:59:13;;;;;;;2.75;1.20;;;;;;;;;;5017248;28;20071;-78
2023/01/01 15:01:41;;;;;;;2.53;1.35;;;;;;;;;;5017048;28;20162;-81
2023/01/01 15:04:17;;;;;;;4.75;1.80;;;;;;;;;;5006495;28;20049;-79
2023/01/01 15:06:43;;;;;;;5.63;1.40;;;;;;;;;;5027416;28;20059;-81
2023/01/01 15:09:16;;;;;;;8.23;1.40;;;;;;;;;;5009630;28;20026;-80
2023/01/01 15:11:42;;;;;;;2.35;1.42;;;;;;;;;;5012681;28;20061;-83